CCGS Tanu — CGBY — position and weather

sailwx.info

Track history (hours):
 
Tides and Currents Weather Stations Pressure Air Temp Water Temp Dewpoint Dewpoint Depression Visibility Wind Speed Wind Dir Waves Ship Positions

CCGS Tanu (Canada)

Ship's website: http://www.ccg-gcc.gc.ca/vessels-navires/details_e.asp?id=M-5

Last reported at 2014-Sep-12 20:04 UTC. Time now 2014-Sep-15 01:59 UTC.
Position N 54°20' W 130°18'.

Length 54.5 m; beam 9.7 m; draft 3.7 m.

Type: SAR. MMSI: 316091000.

Date/timePositionNaut miles runAvg speedWind from/ knotsBaromVisibWave heightAir tempDewpointWater temp
2014-Sep-12 20:04N 54°20' W 130°18'0 0.0
2014-Sep-12 19:31N 54°20' W 130°18'0 0.0
2014-Sep-12 18:31N 54°20' W 130°18'0 0.0
2014-Sep-12 17:31N 54°20' W 130°18'0 0.0
2014-Sep-12 16:31N 54°20' W 130°18'0 0.4
2014-Sep-12 15:33N 54°20' W 130°18'  
2014-Sep-10 00:21N 54°09' W 131°05'7 7.8
2014-Sep-09 23:29N 54°16' W 131°05'18 9.3
2014-Sep-09 21:33N 54°14' W 130°35'8 7.9
2014-Sep-09 20:32N 54°15' W 130°21'5 5.4
2014-Sep-09 19:34N 54°20' W 130°18'0 0.0
2014-Sep-09 18:33N 54°20' W 130°18'0 0.0
2014-Sep-09 17:33N 54°20' W 130°18'0 0.0
2014-Sep-09 16:33N 54°20' W 130°18'1 1.4
2014-Sep-09 15:33N 54°19' W 130°20'8 6.9
2014-Sep-09 14:27N 54°12' W 130°22'  
2014-Sep-05 19:11N 52°14' W 128°14'6 8.9
2014-Sep-05 18:33N 52°11' W 128°06'9 7.1
2014-Sep-05 17:14N 52°04' W 127°56'32 1.9
2014-Sep-05 00:33N 51°32' W 127°52'1311.0
2014-Sep-04 23:25N 51°20' W 127°51'1010.7
2014-Sep-04 22:29N 51°10' W 127°51'1010.7
2014-Sep-04 21:33N 51°03' W 127°39'1111.0
2014-Sep-04 20:33N 50°56' W 127°26'3 3.2
2014-Sep-04 19:30N 50°55' W 127°21'0 0.0
2014-Sep-04 18:30N 50°55' W 127°21'0 0.0
2014-Sep-04 17:30N 50°55' W 127°21'0 0.0
2014-Sep-04 16:30N 50°55' W 127°21'0 0.0
2014-Sep-04 15:30N 50°55' W 127°21'0 0.0
2014-Sep-04 14:30N 50°55' W 127°21'0 0.0
2014-Sep-04 13:30N 50°55' W 127°21'0 0.0
2014-Sep-04 12:30N 50°55' W 127°21'0 0.0
2014-Sep-04 11:30N 50°55' W 127°21'0 0.0
2014-Sep-04 10:30N 50°55' W 127°21'0 0.0
2014-Sep-04 09:30N 50°55' W 127°21'0 0.0
2014-Sep-04 08:30N 50°55' W 127°21'0 0.0
2014-Sep-04 07:30N 50°55' W 127°21'0 0.0
2014-Sep-04 06:30N 50°55' W 127°21'0 0.0
2014-Sep-04 05:30N 50°55' W 127°21'0 0.0
2014-Sep-04 04:30N 50°55' W 127°21'0 0.0
2014-Sep-04 03:30N 50°55' W 127°21'0 0.0
2014-Sep-04 02:30N 50°55' W 127°21'8 8.6
2014-Sep-04 01:33N 50°47' W 127°26'5 4.1
2014-Sep-04 00:28N 50°43' W 127°29'0 0.0
2014-Sep-03 23:28N 50°43' W 127°29'0 0.0
2014-Sep-03 22:28N 50°43' W 127°29'0 0.0
2014-Sep-03 21:28N 50°43' W 127°29'0 0.0
2014-Sep-03 20:28N 50°43' W 127°29'0 0.0
2014-Sep-03 19:28N 50°43' W 127°29'0 0.0
2014-Sep-03 18:28N 50°43' W 127°29'0 0.0
2014-Sep-03 17:28N 50°43' W 127°29'0 0.0
2014-Sep-03 16:28N 50°43' W 127°29'0 0.0
2014-Sep-03 15:28N 50°43' W 127°29'0 0.0
2014-Sep-03 14:28N 50°43' W 127°29'0 0.0
2014-Sep-03 13:28N 50°43' W 127°29'0 0.0
2014-Sep-03 12:28N 50°43' W 127°29'0 0.0
2014-Sep-03 11:22N 50°43' W 127°29'0 0.0
2014-Sep-03 10:28N 50°43' W 127°29'0 0.0
2014-Sep-03 09:28N 50°43' W 127°29'0 0.0
2014-Sep-03 08:28N 50°43' W 127°29'0 0.0
2014-Sep-03 07:28N 50°43' W 127°29'0 0.0
2014-Sep-03 06:22N 50°43' W 127°29'0 0.0
2014-Sep-03 05:28N 50°43' W 127°29'0 0.0
2014-Sep-03 04:28N 50°43' W 127°29'0 0.0
2014-Sep-03 03:28N 50°43' W 127°29'0 0.0
2014-Sep-03 02:28N 50°43' W 127°29'0 0.0
2014-Sep-03 01:28N 50°43' W 127°29'0 0.0
2014-Sep-03 00:28N 50°43' W 127°29'0 0.0
2014-Sep-02 23:28N 50°43' W 127°29'0 0.0
2014-Sep-02 22:28N 50°43' W 127°29'0 0.0
2014-Sep-02 21:28N 50°43' W 127°29'0 0.0
2014-Sep-02 20:28N 50°43' W 127°29'  
Track history (hours):
 
Tides and Currents Weather Stations Pressure Air Temp Water Temp Dewpoint Dewpoint Depression Visibility Wind Speed Wind Dir Waves Ship Positions

CCGS Tanu (Canada)

Ship's website: http://www.ccg-gcc.gc.ca/vessels-navires/details_e.asp?id=M-5

Last reported at 2014-Sep-12 20:04 UTC. Time now 2014-Sep-15 01:59 UTC.
Position N 54°20' W 130°18'.

Length 54.5 m; beam 9.7 m; draft 3.7 m.

Type: SAR. MMSI: 316091000.

Date/timePositionNaut miles runAvg speedWind from/ knotsBaromVisibWave heightAir tempDewpointWater temp
2014-Sep-12 20:04N 54°20' W 130°18'0 0.0
2014-Sep-12 19:31N 54°20' W 130°18'0 0.0
2014-Sep-12 18:31N 54°20' W 130°18'0 0.0
2014-Sep-12 17:31N 54°20' W 130°18'0 0.0
2014-Sep-12 16:31N 54°20' W 130°18'0 0.4
2014-Sep-12 15:33N 54°20' W 130°18'  
2014-Sep-10 00:21N 54°09' W 131°05'7 7.8
2014-Sep-09 23:29N 54°16' W 131°05'18 9.3
2014-Sep-09 21:33N 54°14' W 130°35'8 7.9
2014-Sep-09 20:32N 54°15' W 130°21'5 5.4
2014-Sep-09 19:34N 54°20' W 130°18'0 0.0
2014-Sep-09 18:33N 54°20' W 130°18'0 0.0
2014-Sep-09 17:33N 54°20' W 130°18'0 0.0
2014-Sep-09 16:33N 54°20' W 130°18'1 1.4
2014-Sep-09 15:33N 54°19' W 130°20'8 6.9
2014-Sep-09 14:27N 54°12' W 130°22'  
2014-Sep-05 19:11N 52°14' W 128°14'6 8.9
2014-Sep-05 18:33N 52°11' W 128°06'9 7.1
2014-Sep-05 17:14N 52°04' W 127°56'32 1.9
2014-Sep-05 00:33N 51°32' W 127°52'1311.0
2014-Sep-04 23:25N 51°20' W 127°51'1010.7
2014-Sep-04 22:29N 51°10' W 127°51'1010.7
2014-Sep-04 21:33N 51°03' W 127°39'1111.0
2014-Sep-04 20:33N 50°56' W 127°26'3 3.2
2014-Sep-04 19:30N 50°55' W 127°21'0 0.0
2014-Sep-04 18:30N 50°55' W 127°21'0 0.0
2014-Sep-04 17:30N 50°55' W 127°21'0 0.0
2014-Sep-04 16:30N 50°55' W 127°21'0 0.0
2014-Sep-04 15:30N 50°55' W 127°21'0 0.0
2014-Sep-04 14:30N 50°55' W 127°21'0 0.0
2014-Sep-04 13:30N 50°55' W 127°21'0 0.0
2014-Sep-04 12:30N 50°55' W 127°21'0 0.0
2014-Sep-04 11:30N 50°55' W 127°21'0 0.0
2014-Sep-04 10:30N 50°55' W 127°21'0 0.0
2014-Sep-04 09:30N 50°55' W 127°21'0 0.0
2014-Sep-04 08:30N 50°55' W 127°21'0 0.0
2014-Sep-04 07:30N 50°55' W 127°21'0 0.0
2014-Sep-04 06:30N 50°55' W 127°21'0 0.0
2014-Sep-04 05:30N 50°55' W 127°21'0 0.0
2014-Sep-04 04:30N 50°55' W 127°21'0 0.0
2014-Sep-04 03:30N 50°55' W 127°21'0 0.0
2014-Sep-04 02:30N 50°55' W 127°21'8 8.6
2014-Sep-04 01:33N 50°47' W 127°26'5 4.1
2014-Sep-04 00:28N 50°43' W 127°29'0 0.0
2014-Sep-03 23:28N 50°43' W 127°29'0 0.0
2014-Sep-03 22:28N 50°43' W 127°29'0 0.0
2014-Sep-03 21:28N 50°43' W 127°29'0 0.0
2014-Sep-03 20:28N 50°43' W 127°29'0 0.0
2014-Sep-03 19:28N 50°43' W 127°29'0 0.0
2014-Sep-03 18:28N 50°43' W 127°29'0 0.0
2014-Sep-03 17:28N 50°43' W 127°29'0 0.0
2014-Sep-03 16:28N 50°43' W 127°29'0 0.0
2014-Sep-03 15:28N 50°43' W 127°29'0 0.0
2014-Sep-03 14:28N 50°43' W 127°29'0 0.0
2014-Sep-03 13:28N 50°43' W 127°29'0 0.0
2014-Sep-03 12:28N 50°43' W 127°29'0 0.0
2014-Sep-03 11:22N 50°43' W 127°29'0 0.0
2014-Sep-03 10:28N 50°43' W 127°29'0 0.0
2014-Sep-03 09:28N 50°43' W 127°29'0 0.0
2014-Sep-03 08:28N 50°43' W 127°29'0 0.0
2014-Sep-03 07:28N 50°43' W 127°29'0 0.0
2014-Sep-03 06:22N 50°43' W 127°29'0 0.0
2014-Sep-03 05:28N 50°43' W 127°29'0 0.0
2014-Sep-03 04:28N 50°43' W 127°29'0 0.0
2014-Sep-03 03:28N 50°43' W 127°29'0 0.0
2014-Sep-03 02:28N 50°43' W 127°29'0 0.0
2014-Sep-03 01:28N 50°43' W 127°29'0 0.0
2014-Sep-03 00:28N 50°43' W 127°29'0 0.0
2014-Sep-02 23:28N 50°43' W 127°29'0 0.0
2014-Sep-02 22:28N 50°43' W 127°29'0 0.0
2014-Sep-02 21:28N 50°43' W 127°29'0 0.0
2014-Sep-02 20:28N 50°43' W 127°29'  

Dump ship's entire track history